Terminal Aerodrome Forecast
Issued by NWS

Home | Current Version | Previous Version | Text Only | Print | Product List | Glossary On
Versions: 1 2 3 4 5 6 7 8 9 10 11 12
000
FTUS46 KSGX 200520
TAFONT
TAF
KONT 200520Z 2006/2112 27006KT P6SM SCT028
     FM200700 VRB04KT P6SM BKN020
     FM201100 VRB05KT P6SM VCSH BKN020
     FM201800 21011KT P6SM BKN025
     FM202100 22013KT P6SM SCT030
     FM210300 VRB05KT P6SM SCT030=

USA.gov is the U.S. government's official web portal to all federal, state and local government web resources and services.